Time;durP1;ratioP1;P1;durP2;ratioP2;P2;SDS_P1;SDS_P2;PMS_P1;PMS_P2;Temp;Humidity;BMP_temperature;BMP_pressure;BME280_temperature;BME280_humidity;BME280_pressure;Samples;Min_cycle;Max_cycle;Signal;HPM_P1;HPM_P2
2022/07/19 00:01:50;;;;;;;19.65;7.50;;;;;;;;;;5121316;27;20051;-65
2022/07/19 00:04:17;;;;;;;12.70;6.45;;;;;;;;;;5099341;27;20103;-66
2022/07/19 00:06:43;;;;;;;15.48;7.45;;;;;;;;;;5126536;27;20030;-66
2022/07/19 00:09:09;;;;;;;14.13;6.75;;;;;;;;;;5125554;27;20047;-66
2022/07/19 00:11:35;;;;;;;14.43;6.47;;;;;;;;;;5117538;27;20084;-65
2022/07/19 00:14:01;;;;;;;13.27;6.20;;;;;;;;;;5118605;27;20047;-65
2022/07/19 00:16:27;;;;;;;12.07;6.30;;;;;;;;;;5121609;27;20044;-66
2022/07/19 00:18:54;;;;;;;11.45;6.38;;;;;;;;;;5122468;27;20662;-66
2022/07/19 00:21:20;;;;;;;11.10;7.05;;;;;;;;;;5107268;27;20054;-65
2022/07/19 00:23:46;;;;;;;13.95;6.97;;;;;;;;;;5116643;27;20039;-65
2022/07/19 00:26:12;;;;;;;15.65;6.63;;;;;;;;;;5095860;27;20050;-66
2022/07/19 00:28:38;;;;;;;11.48;6.40;;;;;;;;;;5115824;27;20114;-65
2022/07/19 00:31:05;;;;;;;12.45;6.00;;;;;;;;;;5110599;27;20051;-65
2022/07/19 00:33:31;;;;;;;14.85;6.63;;;;;;;;;;5116079;27;20565;-66
2022/07/19 00:35:57;;;;;;;11.98;6.35;;;;;;;;;;5120330;27;20091;-66
2022/07/19 00:38:23;;;;;;;14.75;6.68;;;;;;;;;;5121755;27;20043;-66
2022/07/19 00:40:49;;;;;;;14.40;7.28;;;;;;;;;;5116102;27;20055;-65
2022/07/19 00:43:16;;;;;;;11.00;6.93;;;;;;;;;;5113036;27;20046;-66
2022/07/19 00:45:42;;;;;;;16.63;7.22;;;;;;;;;;5114984;27;20398;-66
2022/07/19 00:48:08;;;;;;;12.68;7.50;;;;;;;;;;5124641;27;20134;-65
2022/07/19 00:50:34;;;;;;;14.98;6.63;;;;;;;;;;5102979;27;20335;-66
2022/07/19 00:53:04;;;;;;;18.05;7.10;;;;;;;;;;5119412;27;20083;-66
2022/07/19 00:55:31;;;;;;;17.52;6.72;;;;;;;;;;5120226;27;20096;-66
2022/07/19 00:57:58;;;;;;;14.68;7.13;;;;;;;;;;5119466;27;20369;-66
2022/07/19 01:00:25;;;;;;;16.38;6.65;;;;;;;;;;5121739;27;20468;-65
2022/07/19 01:02:52;;;;;;;12.70;6.60;;;;;;;;;;5124717;27;20039;-65
2022/07/19 01:05:18;;;;;;;14.48;6.80;;;;;;;;;;5119573;27;20047;-65
2022/07/19 01:07:45;;;;;;;15.32;6.50;;;;;;;;;;5120648;27;20415;-66
2022/07/19 01:10:11;;;;;;;13.90;6.68;;;;;;;;;;5100969;27;20161;-66
2022/07/19 01:12:38;;;;;;;11.48;6.65;;;;;;;;;;5095753;27;20566;-66
2022/07/19 01:15:13;;;;;;;13.10;6.38;;;;;;;;;;5128042;27;20050;-66
2022/07/19 01:17:39;;;;;;;13.63;6.30;;;;;;;;;;5119942;27;20039;-66
2022/07/19 01:20:06;;;;;;;15.50;7.18;;;;;;;;;;5097839;27;20487;-65
2022/07/19 01:22:32;;;;;;;10.50;6.00;;;;;;;;;;5119402;27;20167;-65
2022/07/19 01:24:58;;;;;;;12.43;6.80;;;;;;;;;;5118907;27;20606;-65
2022/07/19 01:27:24;;;;;;;14.63;6.63;;;;;;;;;;5099096;27;20444;-65
2022/07/19 01:29:50;;;;;;;15.38;6.82;;;;;;;;;;5102942;27;21041;-65
2022/07/19 01:32:17;;;;;;;11.55;6.57;;;;;;;;;;5117348;27;20059;-65
2022/07/19 01:34:43;;;;;;;12.00;6.38;;;;;;;;;;5095277;27;20080;-66
2022/07/19 01:37:09;;;;;;;9.90;5.95;;;;;;;;;;5117401;27;20043;-66
2022/07/19 01:39:35;;;;;;;10.85;6.68;;;;;;;;;;5113843;27;20047;-65
2022/07/19 01:42:01;;;;;;;13.60;6.50;;;;;;;;;;5118583;27;20410;-65
2022/07/19 01:44:27;;;;;;;13.63;7.35;;;;;;;;;;5120619;27;20044;-65
2022/07/19 01:46:54;;;;;;;14.07;7.10;;;;;;;;;;5098239;27;20449;-66
2022/07/19 01:49:20;;;;;;;16.63;7.38;;;;;;;;;;5115658;27;20410;-65
2022/07/19 01:51:46;;;;;;;10.73;6.88;;;;;;;;;;5123654;27;20083;-65
2022/07/19 01:54:12;;;;;;;11.88;6.93;;;;;;;;;;5103302;27;20051;-65
2022/07/19 01:56:42;;;;;;;14.55;7.60;;;;;;;;;;5118881;27;20118;-66
2022/07/19 01:59:08;;;;;;;13.40;6.88;;;;;;;;;;5122246;27;20083;-66
2022/07/19 02:01:34;;;;;;;10.25;7.13;;;;;;;;;;5121631;27;20052;-65
2022/07/19 02:04:01;;;;;;;15.98;7.30;;;;;;;;;;5085492;27;20479;-66
2022/07/19 02:06:27;;;;;;;12.38;7.47;;;;;;;;;;5117347;27;21314;-66
2022/07/19 02:08:53;;;;;;;14.60;7.47;;;;;;;;;;5111219;27;20043;-65
2022/07/19 02:11:34;;;;;;;11.07;6.95;;;;;;;;;;5090499;27;20043;-65
2022/07/19 02:14:01;;;;;;;13.13;6.97;;;;;;;;;;5113054;27;20060;-66
2022/07/19 02:16:27;;;;;;;12.45;6.50;;;;;;;;;;5121925;27;20040;-65
2022/07/19 02:18:53;;;;;;;11.25;6.65;;;;;;;;;;5122342;27;20091;-66
2022/07/19 02:21:19;;;;;;;9.02;6.63;;;;;;;;;;5121836;27;20043;-66
2022/07/19 02:23:46;;;;;;;12.02;7.40;;;;;;;;;;5114275;27;20573;-65
2022/07/19 02:26:12;;;;;;;11.05;7.00;;;;;;;;;;5116957;27;20060;-65
2022/07/19 02:28:38;;;;;;;13.32;7.03;;;;;;;;;;5111970;27;20020;-65
2022/07/19 02:31:05;;;;;;;12.15;7.43;;;;;;;;;;5093059;27;20054;-66
2022/07/19 02:33:31;;;;;;;12.25;6.40;;;;;;;;;;5115968;27;20043;-66
2022/07/19 02:35:57;;;;;;;12.55;6.68;;;;;;;;;;5115335;27;20055;-65
2022/07/19 02:38:24;;;;;;;10.40;6.68;;;;;;;;;;5117404;27;20039;-66
2022/07/19 02:40:50;;;;;;;11.05;7.05;;;;;;;;;;5099128;27;20046;-65
2022/07/19 02:43:16;;;;;;;12.85;6.97;;;;;;;;;;5118031;27;20051;-65
2022/07/19 02:45:42;;;;;;;15.07;7.05;;;;;;;;;;5111304;27;20069;-65
2022/07/19 02:48:10;;;;;;;11.95;6.72;;;;;;;;;;5113196;27;20070;-66
2022/07/19 02:50:36;;;;;;;12.45;7.70;;;;;;;;;;5116794;27;20078;-66
2022/07/19 02:53:02;;;;;;;8.73;6.40;;;;;;;;;;5114414;27;20073;-65
2022/07/19 02:55:28;;;;;;;9.60;6.60;;;;;;;;;;5114672;27;20048;-65
2022/07/19 02:57:54;;;;;;;15.35;7.25;;;;;;;;;;5116104;27;20095;-66
2022/07/19 03:00:21;;;;;;;12.88;6.85;;;;;;;;;;5115377;27;20165;-66
2022/07/19 03:02:47;;;;;;;12.77;7.25;;;;;;;;;;5117742;27;20050;-66
2022/07/19 03:05:13;;;;;;;12.27;7.30;;;;;;;;;;5099511;27;20051;-65
2022/07/19 03:07:39;;;;;;;15.52;8.02;;;;;;;;;;5117022;27;20059;-66
2022/07/19 03:10:06;;;;;;;11.88;8.00;;;;;;;;;;5117691;27;20043;-66
2022/07/19 03:12:32;;;;;;;10.70;7.35;;;;;;;;;;5118587;27;20530;-65
2022/07/19 03:14:58;;;;;;;13.07;7.55;;;;;;;;;;5120325;27;20619;-65
2022/07/19 03:17:24;;;;;;;12.48;6.80;;;;;;;;;;5115075;27;20411;-66
2022/07/19 03:19:51;;;;;;;13.25;7.50;;;;;;;;;;5116386;27;20119;-65
2022/07/19 03:22:17;;;;;;;11.68;6.88;;;;;;;;;;5118917;27;20050;-65
2022/07/19 03:24:43;;;;;;;10.18;6.68;;;;;;;;;;5109168;27;20039;-65
2022/07/19 03:27:09;;;;;;;12.82;6.95;;;;;;;;;;5110619;27;20061;-65
2022/07/19 03:29:35;;;;;;;12.10;7.28;;;;;;;;;;5094581;27;20043;-65
2022/07/19 03:32:02;;;;;;;13.07;6.97;;;;;;;;;;5112645;27;20063;-65
2022/07/19 03:34:29;;;;;;;13.75;7.72;;;;;;;;;;5118195;27;20058;-66
2022/07/19 03:36:55;;;;;;;12.07;6.90;;;;;;;;;;5123861;27;20069;-65
2022/07/19 03:39:22;;;;;;;11.55;7.30;;;;;;;;;;5119242;27;20122;-65
2022/07/19 03:41:48;;;;;;;11.15;7.05;;;;;;;;;;5122226;27;20043;-65
2022/07/19 03:44:14;;;;;;;15.15;7.45;;;;;;;;;;5119439;27;20342;-65
2022/07/19 03:46:40;;;;;;;14.88;7.53;;;;;;;;;;5117147;27;20087;-65
2022/07/19 03:49:07;;;;;;;12.32;7.15;;;;;;;;;;5116870;27;20035;-65
2022/07/19 03:51:33;;;;;;;13.05;6.70;;;;;;;;;;5118562;27;20041;-65
2022/07/19 03:53:59;;;;;;;14.23;6.85;;;;;;;;;;5099450;27;20046;-65
2022/07/19 03:56:25;;;;;;;17.88;6.55;;;;;;;;;;5114542;27;20466;-65
2022/07/19 03:58:51;;;;;;;11.75;6.90;;;;;;;;;;5117337;27;20111;-65
2022/07/19 04:01:17;;;;;;;11.60;6.65;;;;;;;;;;5118616;27;21859;-65
2022/07/19 04:03:44;;;;;;;14.32;7.85;;;;;;;;;;5115843;27;20047;-65
2022/07/19 04:06:11;;;;;;;12.82;6.90;;;;;;;;;;5077020;27;20482;-65
2022/07/19 04:08:37;;;;;;;14.07;8.23;;;;;;;;;;5120466;27;20043;-65
2022/07/19 04:11:04;;;;;;;13.85;6.72;;;;;;;;;;5117099;27;20407;-66
2022/07/19 04:13:32;;;;;;;11.93;6.93;;;;;;;;;;5113423;27;20130;-65
2022/07/19 04:15:58;;;;;;;12.02;6.97;;;;;;;;;;5094595;27;20074;-65
2022/07/19 04:18:25;;;;;;;12.07;6.88;;;;;;;;;;5106353;27;20427;-66
2022/07/19 04:20:51;;;;;;;12.48;7.25;;;;;;;;;;5123097;27;20122;-65
2022/07/19 04:23:18;;;;;;;14.00;8.07;;;;;;;;;;5114603;27;20043;-65
2022/07/19 04:25:44;;;;;;;11.82;7.32;;;;;;;;;;5119866;27;20560;-65
2022/07/19 04:28:10;;;;;;;12.48;7.50;;;;;;;;;;5098973;27;20184;-65
2022/07/19 04:30:36;;;;;;;15.00;8.30;;;;;;;;;;5118972;27;20046;-66
2022/07/19 04:33:02;;;;;;;12.48;6.95;;;;;;;;;;5118382;27;20114;-66
2022/07/19 04:35:29;;;;;;;10.52;6.93;;;;;;;;;;5122937;27;20102;-66
2022/07/19 04:37:55;;;;;;;12.55;6.50;;;;;;;;;;5107724;27;20043;-66
2022/07/19 04:40:21;;;;;;;12.38;6.85;;;;;;;;;;5119671;27;20446;-65
2022/07/19 04:42:47;;;;;;;10.73;6.53;;;;;;;;;;5116343;27;20073;-66
2022/07/19 04:45:14;;;;;;;13.10;7.57;;;;;;;;;;5100440;27;20043;-66
2022/07/19 04:47:40;;;;;;;11.80;6.20;;;;;;;;;;5122927;27;20043;-66
2022/07/19 04:50:06;;;;;;;10.63;6.35;;;;;;;;;;5099414;27;20035;-66
2022/07/19 04:52:32;;;;;;;11.55;6.20;;;;;;;;;;5119719;27;20043;-66
2022/07/19 04:54:59;;;;;;;12.00;6.55;;;;;;;;;;5118440;27;20051;-66
2022/07/19 04:57:25;;;;;;;11.73;6.63;;;;;;;;;;5120419;27;20315;-65
2022/07/19 04:59:51;;;;;;;11.18;6.88;;;;;;;;;;5115227;27;20043;-65
2022/07/19 05:02:17;;;;;;;12.40;6.25;;;;;;;;;;5124838;27;20134;-65
2022/07/19 05:04:43;;;;;;;9.93;6.50;;;;;;;;;;5126831;27;20058;-65
2022/07/19 05:07:10;;;;;;;10.13;6.57;;;;;;;;;;5121514;27;20034;-65
2022/07/19 05:09:36;;;;;;;13.80;6.32;;;;;;;;;;5114257;27;20278;-69
2022/07/19 05:12:05;;;;;;;15.15;7.15;;;;;;;;;;5114583;27;20047;-66
2022/07/19 05:14:32;;;;;;;11.80;7.32;;;;;;;;;;5111566;27;20063;-66
2022/07/19 05:16:58;;;;;;;14.48;7.05;;;;;;;;;;5114960;27;20426;-66
2022/07/19 05:19:24;;;;;;;10.48;6.50;;;;;;;;;;5103338;27;20047;-67
2022/07/19 05:21:51;;;;;;;11.10;6.68;;;;;;;;;;5100751;27;20732;-67
2022/07/19 05:24:17;;;;;;;10.95;6.47;;;;;;;;;;5116205;27;20414;-67
2022/07/19 05:26:43;;;;;;;11.27;6.95;;;;;;;;;;5116433;27;20471;-67
2022/07/19 05:29:10;;;;;;;12.65;7.22;;;;;;;;;;5103849;27;20043;-66
2022/07/19 05:31:37;;;;;;;11.85;7.30;;;;;;;;;;5105732;27;20098;-66
2022/07/19 05:34:03;;;;;;;13.88;7.60;;;;;;;;;;5121374;27;20501;-67
2022/07/19 05:36:30;;;;;;;13.70;7.18;;;;;;;;;;5126577;27;20176;-67
2022/07/19 05:38:56;;;;;;;14.45;7.40;;;;;;;;;;5107677;27;20051;-66
2022/07/19 05:41:22;;;;;;;20.77;7.05;;;;;;;;;;5125397;27;20117;-66
2022/07/19 05:43:49;;;;;;;14.00;6.78;;;;;;;;;;5104728;27;20489;-66
2022/07/19 05:46:16;;;;;;;10.52;7.22;;;;;;;;;;5122985;27;20410;-66
2022/07/19 05:48:42;;;;;;;12.63;6.93;;;;;;;;;;5124609;27;20135;-66
2022/07/19 05:51:08;;;;;;;11.07;6.47;;;;;;;;;;5089710;27;20051;-66
2022/07/19 05:53:35;;;;;;;10.95;6.60;;;;;;;;;;5126565;27;20054;-66
2022/07/19 05:56:01;;;;;;;13.18;7.57;;;;;;;;;;5118885;27;20039;-66
2022/07/19 05:58:28;;;;;;;11.95;7.03;;;;;;;;;;5098027;27;20043;-66
2022/07/19 06:03:38;;;;;;;11.15;6.28;;;;;;;;;;5103957;27;20053;-66
2022/07/19 06:06:05;;;;;;;11.10;6.63;;;;;;;;;;5104519;27;20082;-66
2022/07/19 06:08:31;;;;;;;11.80;6.80;;;;;;;;;;5122749;27;20039;-66
2022/07/19 06:10:57;;;;;;;14.55;6.18;;;;;;;;;;5101810;27;20093;-66
2022/07/19 06:13:23;;;;;;;10.60;6.72;;;;;;;;;;5124318;27;20047;-66
2022/07/19 06:15:51;;;;;;;11.10;6.40;;;;;;;;;;5122941;27;20134;-66
2022/07/19 06:18:17;;;;;;;11.38;6.18;;;;;;;;;;5120152;27;20185;-66
2022/07/19 06:20:43;;;;;;;16.55;6.65;;;;;;;;;;5121322;27;20046;-66
2022/07/19 06:23:09;;;;;;;14.23;6.60;;;;;;;;;;5117075;27;20477;-66
2022/07/19 06:25:36;;;;;;;7.22;5.78;;;;;;;;;;5121033;27;20332;-66
2022/07/19 06:28:02;;;;;;;9.60;5.88;;;;;;;;;;5119275;27;20056;-66
2022/07/19 06:30:28;;;;;;;12.07;6.40;;;;;;;;;;5102327;27;20162;-66
2022/07/19 06:32:55;;;;;;;10.43;6.28;;;;;;;;;;5121560;27;20047;-66
2022/07/19 06:35:21;;;;;;;12.43;6.15;;;;;;;;;;5120263;27;20047;-66
2022/07/19 06:37:47;;;;;;;13.00;6.20;;;;;;;;;;5121711;27;20038;-66
2022/07/19 06:40:13;;;;;;;9.52;6.10;;;;;;;;;;5125441;27;20047;-67
2022/07/19 06:42:40;;;;;;;18.35;6.03;;;;;;;;;;5098444;27;20040;-66
2022/07/19 06:45:06;;;;;;;15.52;6.50;;;;;;;;;;5119017;27;20051;-66
2022/07/19 06:47:32;;;;;;;9.77;6.05;;;;;;;;;;5100343;27;20089;-66
2022/07/19 06:49:59;;;;;;;8.95;5.53;;;;;;;;;;5098520;27;20120;-67
2022/07/19 06:52:25;;;;;;;14.20;5.65;;;;;;;;;;5093899;27;20391;-67
2022/07/19 06:54:51;;;;;;;11.18;5.07;;;;;;;;;;5121357;27;20054;-66
2022/07/19 06:57:18;;;;;;;12.00;5.10;;;;;;;;;;5122823;27;20311;-66
2022/07/19 06:59:44;;;;;;;10.77;4.95;;;;;;;;;;5122649;27;20068;-67
2022/07/19 07:02:10;;;;;;;15.40;5.40;;;;;;;;;;5117045;27;20105;-66
2022/07/19 07:04:36;;;;;;;14.55;5.57;;;;;;;;;;5107005;27;20107;-67
2022/07/19 07:07:02;;;;;;;12.43;5.50;;;;;;;;;;5122963;27;20031;-66
2022/07/19 07:09:29;;;;;;;11.55;4.68;;;;;;;;;;5116220;27;20091;-66
2022/07/19 07:11:55;;;;;;;10.00;4.50;;;;;;;;;;5123304;27;20118;-67
2022/07/19 07:14:21;;;;;;;10.02;4.60;;;;;;;;;;5103906;27;20058;-66
2022/07/19 07:16:47;;;;;;;10.82;4.70;;;;;;;;;;5128939;27;20039;-66
2022/07/19 07:19:13;;;;;;;15.65;5.45;;;;;;;;;;5124893;27;20115;-67
2022/07/19 07:21:40;;;;;;;12.80;4.97;;;;;;;;;;5125376;27;20091;-72
2022/07/19 07:24:06;;;;;;;9.68;4.50;;;;;;;;;;5107556;27;20038;-67
2022/07/19 07:26:33;;;;;;;11.13;5.32;;;;;;;;;;5128774;27;20058;-67
2022/07/19 07:28:59;;;;;;;13.48;4.93;;;;;;;;;;5112867;27;20035;-66
2022/07/19 07:31:25;;;;;;;11.50;4.00;;;;;;;;;;5129683;27;20051;-66
2022/07/19 07:33:52;;;;;;;11.15;4.38;;;;;;;;;;5120725;27;20039;-66
2022/07/19 07:36:18;;;;;;;15.75;4.80;;;;;;;;;;5106980;27;20406;-66
2022/07/19 07:38:44;;;;;;;9.90;4.03;;;;;;;;;;5130376;27;20039;-66
2022/07/19 07:41:10;;;;;;;7.53;3.97;;;;;;;;;;5128393;27;20075;-67
2022/07/19 07:43:37;;;;;;;10.85;4.07;;;;;;;;;;5132152;27;20416;-66
2022/07/19 07:46:03;;;;;;;10.15;3.47;;;;;;;;;;5119405;27;20473;-67
2022/07/19 07:48:29;;;;;;;7.95;4.00;;;;;;;;;;5118462;27;20046;-66
2022/07/19 07:50:56;;;;;;;8.40;3.47;;;;;;;;;;5118451;27;20039;-68
2022/07/19 07:53:22;;;;;;;8.65;3.65;;;;;;;;;;5082512;27;20043;-66
2022/07/19 07:55:48;;;;;;;7.82;3.03;;;;;;;;;;5116784;27;20051;-66
2022/07/19 07:58:14;;;;;;;8.77;3.63;;;;;;;;;;5122414;27;20508;-66
2022/07/19 08:00:40;;;;;;;5.18;2.53;;;;;;;;;;5122351;27;20142;-66
2022/07/19 08:03:07;;;;;;;10.05;3.33;;;;;;;;;;5133454;27;20080;-67
2022/07/19 08:05:33;;;;;;;8.85;3.28;;;;;;;;;;5115666;27;20111;-67
2022/07/19 08:08:00;;;;;;;9.90;2.90;;;;;;;;;;5131550;27;20424;-67
2022/07/19 08:10:27;;;;;;;10.52;3.13;;;;;;;;;;5129477;27;20047;-67
2022/07/19 08:12:53;;;;;;;8.85;2.70;;;;;;;;;;5129710;27;20078;-66
2022/07/19 08:15:20;;;;;;;10.30;3.15;;;;;;;;;;5103359;27;20097;-67
2022/07/19 08:17:46;;;;;;;7.72;2.72;;;;;;;;;;5121797;27;20095;-67
2022/07/19 08:20:12;;;;;;;8.75;3.35;;;;;;;;;;5116637;27;20055;-67
2022/07/19 08:22:39;;;;;;;7.43;2.90;;;;;;;;;;5118632;27;20118;-67
2022/07/19 08:25:05;;;;;;;8.07;2.72;;;;;;;;;;5117154;27;20119;-67
2022/07/19 08:27:33;;;;;;;7.10;2.60;;;;;;;;;;5100710;27;20082;-67
2022/07/19 08:29:59;;;;;;;7.43;2.55;;;;;;;;;;5119529;27;20115;-67
2022/07/19 08:32:25;;;;;;;9.45;2.80;;;;;;;;;;5115709;27;20055;-67
2022/07/19 08:34:51;;;;;;;10.60;2.67;;;;;;;;;;5102318;27;20524;-67
2022/07/19 08:37:18;;;;;;;12.02;2.80;;;;;;;;;;5120610;27;20048;-67
2022/07/19 08:39:44;;;;;;;9.75;2.80;;;;;;;;;;5120122;27;20046;-66
2022/07/19 08:42:10;;;;;;;5.20;2.40;;;;;;;;;;5119446;27;20051;-66
2022/07/19 08:44:39;;;;;;;7.35;2.65;;;;;;;;;;5077316;27;20774;-67
2022/07/19 08:47:05;;;;;;;5.68;2.20;;;;;;;;;;5106132;27;20050;-67
2022/07/19 08:49:32;;;;;;;10.00;2.45;;;;;;;;;;5125457;27;20043;-67
2022/07/19 08:51:58;;;;;;;6.35;2.80;;;;;;;;;;5121942;27;20388;-67
2022/07/19 08:54:24;;;;;;;4.88;2.45;;;;;;;;;;5106514;27;20043;-67
2022/07/19 08:59:35;;;;;;;7.03;2.20;;;;;;;;;;5128983;27;20520;-67
2022/07/19 09:02:02;;;;;;;6.25;2.05;;;;;;;;;;5118605;27;20386;-67
2022/07/19 09:04:30;;;;;;;7.07;2.60;;;;;;;;;;5121346;27;20047;-67
2022/07/19 09:06:56;;;;;;;8.98;2.70;;;;;;;;;;5119016;27;20039;-67
2022/07/19 09:09:25;;;;;;;5.70;2.35;;;;;;;;;;5119313;27;20052;-67
2022/07/19 09:11:51;;;;;;;4.50;2.38;;;;;;;;;;5119969;27;20035;-66
2022/07/19 09:14:19;;;;;;;8.77;2.63;;;;;;;;;;5120963;27;20170;-68
2022/07/19 09:16:49;;;;;;;5.32;2.00;;;;;;;;;;5104277;27;20050;-67
2022/07/19 09:19:15;;;;;;;4.95;2.50;;;;;;;;;;5127503;27;20050;-67
2022/07/19 09:21:53;;;;;;;8.02;2.05;;;;;;;;;;5129582;27;20031;-66
2022/07/19 09:24:20;;;;;;;4.47;2.10;;;;;;;;;;5107731;27;20055;-67
2022/07/19 09:26:56;;;;;;;6.10;2.10;;;;;;;;;;5124201;27;20117;-67
2022/07/19 09:29:22;;;;;;;5.72;1.85;;;;;;;;;;5127526;27;20039;-67
2022/07/19 09:31:58;;;;;;;5.13;2.20;;;;;;;;;;5120876;27;20043;-67
2022/07/19 09:34:30;;;;;;;7.82;2.15;;;;;;;;;;5122988;27;20047;-67
2022/07/19 09:37:09;;;;;;;4.85;2.17;;;;;;;;;;5131903;27;20047;-67
2022/07/19 09:39:35;;;;;;;4.18;2.00;;;;;;;;;;5134121;27;20107;-67
2022/07/19 09:42:03;;;;;;;5.20;2.22;;;;;;;;;;5131041;27;20134;-67
2022/07/19 09:44:29;;;;;;;5.97;2.15;;;;;;;;;;5125496;27;20065;-68
2022/07/19 09:46:55;;;;;;;7.32;2.25;;;;;;;;;;5118081;27;20043;-67
2022/07/19 09:49:21;;;;;;;5.00;1.80;;;;;;;;;;5121675;27;20806;-71
2022/07/19 09:51:49;;;;;;;7.00;1.63;;;;;;;;;;5096866;27;20051;-67
2022/07/19 09:54:18;;;;;;;6.80;2.03;;;;;;;;;;5119622;27;20116;-67
2022/07/19 09:56:45;;;;;;;4.47;1.50;;;;;;;;;;5120925;27;20049;-68
2022/07/19 09:59:12;;;;;;;9.13;2.38;;;;;;;;;;5119556;27;20061;-67
2022/07/19 10:01:39;;;;;;;5.63;1.77;;;;;;;;;;5125543;27;20143;-67
2022/07/19 10:04:07;;;;;;;6.20;2.17;;;;;;;;;;5123505;27;20058;-67
2022/07/19 10:06:35;;;;;;;5.07;1.90;;;;;;;;;;5124770;27;20043;-67
2022/07/19 10:09:04;;;;;;;6.60;2.20;;;;;;;;;;5125061;27;20031;-67
2022/07/19 10:11:31;;;;;;;4.68;1.88;;;;;;;;;;5124248;27;20172;-67
2022/07/19 10:13:57;;;;;;;9.48;2.00;;;;;;;;;;5123395;27;20081;-67
2022/07/19 10:16:33;;;;;;;10.40;2.33;;;;;;;;;;5122808;27;20047;-67
2022/07/19 10:19:08;;;;;;;6.78;1.80;;;;;;;;;;5118301;27;20038;-68
2022/07/19 10:21:36;;;;;;;4.20;1.80;;;;;;;;;;5115793;27;20059;-64
2022/07/19 10:24:02;;;;;;;4.72;2.38;;;;;;;;;;5098243;27;20039;-65
2022/07/19 10:26:39;;;;;;;5.18;1.98;;;;;;;;;;5097782;27;20070;-65
2022/07/19 10:29:11;;;;;;;6.07;2.17;;;;;;;;;;5111385;27;20042;-65
2022/07/19 10:31:38;;;;;;;;;;;;;;;;;;5103949;27;20455;-65
2022/07/19 10:34:06;;;;;;;4.40;1.88;;;;;;;;;;5117706;27;20057;-65
2022/07/19 10:36:38;;;;;;;6.10;1.90;;;;;;;;;;5111829;27;20125;-65
2022/07/19 10:39:19;;;;;;;6.50;2.75;;;;;;;;;;5118307;27;20070;-64
2022/07/19 10:42:04;;;;;;;6.32;1.98;;;;;;;;;;5117175;27;20406;-65
2022/07/19 10:44:31;;;;;;;7.10;1.85;;;;;;;;;;5116615;27;20047;-65
2022/07/19 10:46:57;;;;;;;6.00;1.98;;;;;;;;;;5125302;27;20043;-64
2022/07/19 10:49:42;;;;;;;10.18;2.00;;;;;;;;;;5123903;27;20115;-65
2022/07/19 10:52:31;;;;;;;4.88;1.80;;;;;;;;;;5123514;27;20047;-66
2022/07/19 10:55:18;;;;;;;4.55;2.10;;;;;;;;;;5127064;27;20043;-64
2022/07/19 10:57:45;;;;;;;5.90;1.67;;;;;;;;;;5096005;27;20054;-65
2022/07/19 11:00:21;;;;;;;4.43;1.90;;;;;;;;;;5101899;27;20035;-65
2022/07/19 11:02:48;;;;;;;4.90;1.80;;;;;;;;;;5122024;27;20620;-65
2022/07/19 11:05:20;;;;;;;7.00;1.70;;;;;;;;;;5102994;27;20485;-65
2022/07/19 11:07:49;;;;;;;4.97;2.10;;;;;;;;;;5119949;27;20047;-65
2022/07/19 11:10:22;;;;;;;9.35;2.13;;;;;;;;;;5116931;27;20116;-65
2022/07/19 11:12:48;;;;;;;8.68;2.17;;;;;;;;;;5117076;27;20142;-65
2022/07/19 11:15:14;;;;;;;10.82;2.83;;;;;;;;;;5120951;27;20493;-65
2022/07/19 11:17:50;;;;;;;3.65;1.40;;;;;;;;;;5125528;27;20039;-65
2022/07/19 11:20:19;;;;;;;3.92;1.67;;;;;;;;;;5130547;27;20126;-65
2022/07/19 11:22:46;;;;;;;4.68;1.70;;;;;;;;;;5119519;27;20051;-65
2022/07/19 11:25:13;;;;;;;3.97;1.50;;;;;;;;;;5118436;27;20261;-64
2022/07/19 11:27:41;;;;;;;6.03;1.90;;;;;;;;;;5123569;27;20023;-64
2022/07/19 11:30:07;;;;;;;6.25;1.65;;;;;;;;;;5125455;27;20071;-64
2022/07/19 11:32:34;;;;;;;4.65;2.17;;;;;;;;;;5134653;27;20133;-64
2022/07/19 11:35:01;;;;;;;3.47;1.50;;;;;;;;;;5132010;27;20039;-64
2022/07/19 11:37:29;;;;;;;3.78;1.60;;;;;;;;;;5136856;27;20042;-64
2022/07/19 11:39:57;;;;;;;4.15;1.48;;;;;;;;;;5129007;27;20058;-64
2022/07/19 11:42:31;;;;;;;6.93;1.60;;;;;;;;;;5106187;27;20505;-65
2022/07/19 11:44:58;;;;;;;5.35;1.83;;;;;;;;;;5123323;27;20122;-64
2022/07/19 11:47:24;;;;;;;6.75;1.67;;;;;;;;;;5127487;27;20385;-65
2022/07/19 11:49:50;;;;;;;5.88;1.33;;;;;;;;;;5127334;27;20035;-64
2022/07/19 11:52:17;;;;;;;5.35;1.20;;;;;;;;;;5104619;27;20625;-65
2022/07/19 11:54:58;;;;;;;2.60;1.20;;;;;;;;;;5124616;27;20079;-64
2022/07/19 11:57:24;;;;;;;5.03;1.33;;;;;;;;;;5124108;27;20135;-64
2022/07/19 11:59:50;;;;;;;4.25;1.10;;;;;;;;;;5123923;27;20077;-65
2022/07/19 12:02:17;;;;;;;2.28;1.15;;;;;;;;;;5122307;27;20099;-65
2022/07/19 12:04:43;;;;;;;4.03;1.40;;;;;;;;;;5105363;27;20048;-65
2022/07/19 12:07:09;;;;;;;3.78;1.10;;;;;;;;;;5119333;27;20612;-65
2022/07/19 12:09:37;;;;;;;2.88;1.30;;;;;;;;;;5110441;27;20043;-65
2022/07/19 12:12:15;;;;;;;6.75;1.20;;;;;;;;;;5099713;27;20053;-65
2022/07/19 12:14:41;;;;;;;3.97;1.40;;;;;;;;;;5118775;27;20134;-65
2022/07/19 12:17:12;;;;;;;7.00;1.50;;;;;;;;;;5123840;27;20569;-65
2022/07/19 12:19:39;;;;;;;3.53;1.30;;;;;;;;;;5102003;27;20047;-65
2022/07/19 12:22:06;;;;;;;5.43;1.10;;;;;;;;;;5112314;27;21138;-65
2022/07/19 12:24:32;;;;;;;5.22;1.40;;;;;;;;;;5115964;27;20122;-72
2022/07/19 12:27:00;;;;;;;4.95;1.63;;;;;;;;;;5127187;27;20088;-65
2022/07/19 12:29:35;;;;;;;3.53;1.30;;;;;;;;;;5133062;27;20050;-65
2022/07/19 12:32:04;;;;;;;4.10;1.50;;;;;;;;;;5131700;27;21976;-65
2022/07/19 12:34:41;;;;;;;3.13;1.33;;;;;;;;;;5129943;27;20089;-65
2022/07/19 12:37:22;;;;;;;4.50;1.20;;;;;;;;;;5116393;27;20110;-65
2022/07/19 12:39:57;;;;;;;2.28;1.13;;;;;;;;;;5101587;27;20099;-65
2022/07/19 12:42:23;;;;;;;3.53;1.10;;;;;;;;;;5122973;27;21761;-65
2022/07/19 12:44:50;;;;;;;3.38;1.30;;;;;;;;;;5122280;27;20043;-65
2022/07/19 12:47:16;;;;;;;5.03;1.23;;;;;;;;;;5124300;27;20066;-65
2022/07/19 12:49:44;;;;;;;5.18;1.55;;;;;;;;;;5109171;27;20427;-65
2022/07/19 12:52:10;;;;;;;4.60;1.65;;;;;;;;;;5103446;27;20794;-65
2022/07/19 12:54:36;;;;;;;2.67;1.30;;;;;;;;;;5120526;27;20039;-65
2022/07/19 12:57:02;;;;;;;7.55;1.27;;;;;;;;;;5123371;27;20072;-65
2022/07/19 12:59:39;;;;;;;5.65;1.40;;;;;;;;;;5114610;27;20077;-65
2022/07/19 13:02:06;;;;;;;4.57;1.27;;;;;;;;;;5115712;27;20134;-65
2022/07/19 13:04:32;;;;;;;6.15;1.38;;;;;;;;;;5117120;27;20511;-65
2022/07/19 13:06:58;;;;;;;4.00;1.25;;;;;;;;;;5122069;27;20128;-66
2022/07/19 13:09:24;;;;;;;4.05;1.60;;;;;;;;;;5114994;27;20490;-65
2022/07/19 13:11:51;;;;;;;4.00;1.45;;;;;;;;;;5120985;27;20031;-66
2022/07/19 13:14:17;;;;;;;3.90;1.50;;;;;;;;;;5118922;27;20066;-65
2022/07/19 13:16:43;;;;;;;3.50;1.33;;;;;;;;;;5118120;27;20035;-65
2022/07/19 13:19:09;;;;;;;6.10;1.65;;;;;;;;;;5122626;27;20141;-65
2022/07/19 13:21:36;;;;;;;4.85;1.40;;;;;;;;;;5123203;27;20347;-66
2022/07/19 13:24:02;;;;;;;3.92;1.50;;;;;;;;;;5117602;27;20439;-65
2022/07/19 13:26:28;;;;;;;4.00;1.38;;;;;;;;;;5114033;27;20044;-65
2022/07/19 13:28:55;;;;;;;4.97;1.65;;;;;;;;;;5124917;27;20085;-65
2022/07/19 13:31:21;;;;;;;4.85;1.60;;;;;;;;;;5102682;27;20050;-65
2022/07/19 13:33:47;;;;;;;4.78;1.33;;;;;;;;;;5122283;27;20094;-65
2022/07/19 13:36:13;;;;;;;7.82;1.40;;;;;;;;;;5121453;27;20053;-65
2022/07/19 13:38:41;;;;;;;4.47;1.30;;;;;;;;;;5118236;27;20064;-65
2022/07/19 13:41:08;;;;;;;5.20;1.38;;;;;;;;;;5121122;27;20053;-65
2022/07/19 13:43:35;;;;;;;3.00;1.20;;;;;;;;;;5123029;27;20051;-65
2022/07/19 13:46:01;;;;;;;3.33;1.30;;;;;;;;;;5125982;27;20038;-65
2022/07/19 13:48:27;;;;;;;9.63;1.65;;;;;;;;;;5107707;27;20042;-65
2022/07/19 13:50:53;;;;;;;3.58;1.42;;;;;;;;;;5127587;27;20095;-65
2022/07/19 13:53:20;;;;;;;4.53;1.50;;;;;;;;;;5125219;27;20051;-65
2022/07/19 13:55:46;;;;;;;3.92;1.48;;;;;;;;;;5114207;27;20046;-66
2022/07/19 13:58:12;;;;;;;5.00;1.45;;;;;;;;;;5136211;27;20070;-65
2022/07/19 14:00:38;;;;;;;5.80;1.40;;;;;;;;;;5106640;27;20050;-65
2022/07/19 14:03:04;;;;;;;2.92;1.20;;;;;;;;;;5124841;27;20047;-65
2022/07/19 14:05:31;;;;;;;7.07;1.25;;;;;;;;;;5123336;27;20071;-65
2022/07/19 14:07:57;;;;;;;4.80;1.30;;;;;;;;;;5106289;27;20478;-65
2022/07/19 14:10:23;;;;;;;3.65;1.30;;;;;;;;;;5124367;27;20054;-66
2022/07/19 14:12:49;;;;;;;9.50;1.40;;;;;;;;;;5123567;27;20062;-65
2022/07/19 14:15:16;;;;;;;4.63;1.70;;;;;;;;;;5123167;27;20120;-66
2022/07/19 14:17:42;;;;;;;4.93;1.27;;;;;;;;;;5122501;27;20042;-66
2022/07/19 14:20:09;;;;;;;5.80;1.40;;;;;;;;;;5125888;27;20050;-65
2022/07/19 14:22:35;;;;;;;3.25;1.10;;;;;;;;;;5105425;27;20118;-66
2022/07/19 14:25:02;;;;;;;6.70;1.40;;;;;;;;;;5122235;27;20130;-66
2022/07/19 14:27:28;;;;;;;3.05;1.27;;;;;;;;;;5124815;27;20058;-66
2022/07/19 14:29:54;;;;;;;5.65;1.60;;;;;;;;;;5104644;27;20536;-65
2022/07/19 14:32:21;;;;;;;4.72;1.52;;;;;;;;;;5122488;27;20050;-65
2022/07/19 14:34:47;;;;;;;4.18;1.55;;;;;;;;;;5121069;27;20174;-65
2022/07/19 14:37:13;;;;;;;5.15;1.10;;;;;;;;;;5116275;27;20043;-65
2022/07/19 14:39:39;;;;;;;7.38;1.65;;;;;;;;;;5122937;27;20044;-65
2022/07/19 14:42:05;;;;;;;4.05;1.25;;;;;;;;;;5103378;28;20423;-65